Domov
logo

Vyskúšajte rýchly a spoľahlivý webhosting

Aktuálne počasie

LZIB - letisko Bratislava

Hodnoty namerané: 22.01.2020, 00:00 SEČ
Aktuálny čas: 22.01.2020, 00:06 SEČ
Aktualizované: pred 6 min.
Teplota: -1°C, pocitová teplota -3°C
Rosný bod: -1°C
Vietor: 6 km/h 60° (VSV)
Dohľadnosť: 400 m
Stav počasia: mrznúci(a,e) hmla
Oblačnosť: oblačno na 30 m, zamračené na 61 m
Základňa oblačnosti: 30 m
Vlhkosť vzduchu: 100 %
Tlak vzduchu: 1038 hPa
METAR: LZIB 212300Z 06003KT 0400 R31/1000U R22/1200U FZFG BKN001 OVC002 M01/M01 Q1038 R13/CLRD//

LZKZ - letisko Košice

Hodnoty namerané: 22.01.2020, 00:00 SEČ
Aktuálny čas: 22.01.2020, 00:06 SEČ
Aktualizované: pred 6 min.
Teplota: -2°C, pocitová teplota -5°C
Rosný bod: -3°C
Vietor: 9 km/h 190° (J)
Dohľadnosť: 5000 m
Stav počasia: dymno
Oblačnosť: zamračené na 122 m
Základňa oblačnosti: 122 m
Vlhkosť vzduchu: 93 %
Tlak vzduchu: 1037 hPa
METAR: LZKZ 212300Z 19005KT 5000 BR OVC004 M02/M03 Q1037

LZPP - letisko Piešťany

Hodnoty namerané: 22.01.2020, 00:00 SEČ
Aktuálny čas: 22.01.2020, 00:06 SEČ
Aktualizované: pred 6 min.
Teplota: -2°C
Rosný bod: -3°C
Vietor: premenlivý 4 km/h
Dohľadnosť: 3700 m
Stav počasia: dymno
Oblačnosť: zamračené na 152 m
Základňa oblačnosti: 152 m
Vlhkosť vzduchu: 93 %
Tlak vzduchu: 1038 hPa
METAR: LZPP 212300Z AUTO VRB02KT 3700 BR OVC005/// M02/M03 Q1038

LZTT - letisko Poprad Tatry

Hodnoty namerané: 22.01.2020, 00:00 SEČ
Aktuálny čas: 22.01.2020, 00:06 SEČ
Aktualizované: pred 6 min.
Teplota: -6°C
Rosný bod: -7°C
Vietor: premenlivý 2 km/h
Dohľadnosť: 100 m
Stav počasia: mrznúci(a,e) hmla
Oblačnosť: zamračené na 30 m
Základňa oblačnosti: 30 m
Vlhkosť vzduchu: 93 %
Tlak vzduchu: 1033 hPa
METAR: LZTT 212300Z VRB01KT 0100 R27/0450N FZFG OVC001 M06/M07 Q1033

LZSL - letisko Sliač

Hodnoty namerané: 22.01.2020, 00:00 SEČ
Aktuálny čas: 22.01.2020, 00:06 SEČ
Aktualizované: pred 6 min.
Teplota: -4°C
Rosný bod: -5°C
Vietor: 2 km/h 10° (S)
Dohľadnosť: 1500 m
Stav počasia: dymno
Oblačnosť: zamračené na 61 m
Základňa oblačnosti: 61 m
Vlhkosť vzduchu: 93 %
Tlak vzduchu: 1037 hPa
METAR: LZSL 212300Z 01001KT 1500 BR OVC002 M04/M05 Q1037

LZZI - letisko Žilina

Hodnoty namerané: 22.01.2020, 00:00 SEČ
Aktuálny čas: 22.01.2020, 00:06 SEČ
Aktualizované: pred 6 min.
Teplota: -3°C
Rosný bod: -4°C
Vietor: 2 km/h 150° (JJV)
Dohľadnosť: 4000 m
Stav počasia: dymno
Oblačnosť: oblačno na 122 m, zamračené na 213 m
Základňa oblačnosti: 122 m
Vlhkosť vzduchu: 93 %
Tlak vzduchu: 1037 hPa
METAR: LZZI 212300Z 15001KT 4000 BR BKN004 OVC007 M03/M04 Q1037

POZNÁMKY:

SEČ - stredoeurópsky čas (UTC+1hod.)

SELČ - stredoeurópsky letný čas (UTC+2hod.)

UTC - univerzálny svetový čas, GMT, ZULU

METAR - sú pravidelné kódované letecké meteorologické správy. Tie zostavujú a zverejňujú meteorologické stanice letísk v polhodinových/hodinových intervaloch. Na tejto stránke správy METAR zo slovenských letísk nájdete už v dekódovanej podobe.

hore